Главная страница
METAR-TAF:

METAR-TAF

Аэропорты :

Рейкьявик, Исландия

широта: 64-08N, долгота: 021-54W, высота над уровнем моря: 54 м

Текущие метеонаблюдения

Эта сводка был подготовлена 25 минут назад, в 21:00 UTC
Ветер 5 Узел от южный
Температура 5°C
Влажность 75%
Давление 999 hPa
Видимость 10 км и более
небольшая облачность на высоте 3000 фута
Рассеянная облачность на высоте 5000 фута

METAR: BIRK 202100Z 19005KT 9999 FEW030 BKN050 05/01 Q0999

Время: 21:25 (21:25 UTC)

Прогноз

Эта сводка был подготовлена 2 часа и 1 минут назад, в 19:24 UTC
Прогноз действительный с 20-го 21 UTC до 21-го 21 UTC
Ветер 2 Узел переменных направлений
Видимость 10 км и более
Рассеянная облачность на высоте 3000 фута
изменения
С 21-го 18 UTC до 21-го 21 UTC
Ветер 10 Узел от северный
Отдельные облака на высоте 4000 фута

TAF: BIRK 201924Z 2021/2121 VRB02KT 9999 BKN030 TX06/2114Z TN02/2024Z BECMG 2118/2121 35010KT SCT040

Метеонаблюдения и прогнозы для более 4000 аэропортов (сводки METAR и TAF).

Имеющиеся станции представлены на карте желтыми и красными точками.

Чтобы увидеть название станции, наведите на нее мышь.

Затем щелкните, чтобы увидеть метеонаблюдения и метеопрогнозы.

Управление картой: чтобы увеличить масштаб, щелкните зеленые кнопки с черным крестиком; чтобы уменьшить масштаб, щелкните зеленую кнопку с тире; для просмотра соседних карт щелкайте зеленые стрелки.


METAR-TAF: